sensor_id;sensor_type;location;lat;lon;timestamp;pressure;altitude;pressure_sealevel;temperature;humidity
51526;BME280;37611;51.794;21.590;2023-08-06T00:02:59;98734.98;;;20.05;100.00
51526;BME280;37611;51.794;21.590;2023-08-06T00:07:01;98726.20;;;20.07;100.00
51526;BME280;37611;51.794;21.590;2023-08-06T00:11:02;98715.98;;;20.12;100.00
51526;BME280;37611;51.794;21.590;2023-08-06T00:15:04;98703.49;;;20.12;100.00
51526;BME280;37611;51.794;21.590;2023-08-06T00:19:06;98700.46;;;20.12;100.00
51526;BME280;37611;51.794;21.590;2023-08-06T00:23:08;98695.60;;;20.12;100.00
51526;BME280;37611;51.794;21.590;2023-08-06T00:27:10;98685.31;;;20.12;100.00
51526;BME280;37611;51.794;21.590;2023-08-06T00:31:11;98685.51;;;20.14;100.00
51526;BME280;37611;51.794;21.590;2023-08-06T00:35:13;98685.98;;;20.17;100.00
51526;BME280;37611;51.794;21.590;2023-08-06T00:39:15;98681.36;;;20.19;100.00
51526;BME280;37611;51.794;21.590;2023-08-06T00:43:17;98679.33;;;20.23;100.00
51526;BME280;37611;51.794;21.590;2023-08-06T00:47:19;98679.52;;;20.25;100.00
51526;BME280;37611;51.794;21.590;2023-08-06T00:51:22;98675.10;;;20.26;100.00
51526;BME280;37611;51.794;21.590;2023-08-06T00:55:24;98678.09;;;20.27;100.00
51526;BME280;37611;51.794;21.590;2023-08-06T00:59:25;98684.70;;;20.30;100.00
51526;BME280;37611;51.794;21.590;2023-08-06T01:03:27;98685.42;;;20.32;100.00
51526;BME280;37611;51.794;21.590;2023-08-06T01:16:20;98655.10;;;20.34;100.00
51526;BME280;37611;51.794;21.590;2023-08-06T01:20:27;98646.25;;;20.34;100.00
51526;BME280;37611;51.794;21.590;2023-08-06T01:24:29;98635.59;;;20.30;100.00
51526;BME280;37611;51.794;21.590;2023-08-06T01:28:40;98622.61;;;20.29;100.00
51526;BME280;37611;51.794;21.590;2023-08-06T01:32:49;98612.34;;;20.27;100.00
51526;BME280;37611;51.794;21.590;2023-08-06T01:36:52;98607.00;;;20.26;100.00
51526;BME280;37611;51.794;21.590;2023-08-06T01:40:54;98591.83;;;20.23;100.00
51526;BME280;37611;51.794;21.590;2023-08-06T01:44:56;98584.92;;;20.21;100.00
51526;BME280;37611;51.794;21.590;2023-08-06T01:48:58;98584.24;;;20.18;100.00
51526;BME280;37611;51.794;21.590;2023-08-06T01:52:59;98566.80;;;20.12;100.00
51526;BME280;37611;51.794;21.590;2023-08-06T01:57:01;98548.30;;;20.07;100.00
51526;BME280;37611;51.794;21.590;2023-08-06T02:01:03;98535.69;;;20.00;100.00
51526;BME280;37611;51.794;21.590;2023-08-06T02:05:05;98534.92;;;19.94;100.00
51526;BME280;37611;51.794;21.590;2023-08-06T02:09:07;98545.36;;;19.90;100.00
51526;BME280;37611;51.794;21.590;2023-08-06T02:13:08;98548.48;;;19.87;100.00
51526;BME280;37611;51.794;21.590;2023-08-06T02:17:10;98537.73;;;19.84;100.00
51526;BME280;37611;51.794;21.590;2023-08-06T02:21:12;98521.54;;;19.80;100.00
51526;BME280;37611;51.794;21.590;2023-08-06T02:25:13;98517.98;;;19.76;100.00
51526;BME280;37611;51.794;21.590;2023-08-06T02:29:15;98512.94;;;19.74;100.00
51526;BME280;37611;51.794;21.590;2023-08-06T02:33:17;98502.34;;;19.70;100.00
51526;BME280;37611;51.794;21.590;2023-08-06T02:37:19;98494.73;;;19.67;100.00
51526;BME280;37611;51.794;21.590;2023-08-06T02:41:20;98497.48;;;19.64;100.00
51526;BME280;37611;51.794;21.590;2023-08-06T02:45:22;98491.56;;;19.63;100.00
51526;BME280;37611;51.794;21.590;2023-08-06T02:49:24;98487.02;;;19.64;100.00
51526;BME280;37611;51.794;21.590;2023-08-06T02:53:25;98481.95;;;19.62;100.00
51526;BME280;37611;51.794;21.590;2023-08-06T02:57:27;98475.71;;;19.62;100.00
51526;BME280;37611;51.794;21.590;2023-08-06T03:01:29;98463.73;;;19.60;100.00
51526;BME280;37611;51.794;21.590;2023-08-06T03:05:30;98453.33;;;19.58;100.00
51526;BME280;37611;51.794;21.590;2023-08-06T03:09:32;98444.96;;;19.54;100.00
51526;BME280;37611;51.794;21.590;2023-08-06T03:13:34;98436.83;;;19.51;100.00
51526;BME280;37611;51.794;21.590;2023-08-06T03:17:35;98436.22;;;19.49;100.00
51526;BME280;37611;51.794;21.590;2023-08-06T03:21:37;98434.61;;;19.48;100.00
51526;BME280;37611;51.794;21.590;2023-08-06T03:25:39;98431.15;;;19.49;100.00
51526;BME280;37611;51.794;21.590;2023-08-06T03:29:40;98422.11;;;19.50;100.00
51526;BME280;37611;51.794;21.590;2023-08-06T03:33:42;98414.66;;;19.51;100.00
51526;BME280;37611;51.794;21.590;2023-08-06T03:37:44;98411.77;;;19.54;100.00
51526;BME280;37611;51.794;21.590;2023-08-06T03:41:45;98404.83;;;19.57;100.00
51526;BME280;37611;51.794;21.590;2023-08-06T03:45:47;98399.21;;;19.62;100.00
51526;BME280;37611;51.794;21.590;2023-08-06T03:49:49;98393.62;;;19.67;100.00
51526;BME280;37611;51.794;21.590;2023-08-06T03:53:51;98388.80;;;19.71;100.00
51526;BME280;37611;51.794;21.590;2023-08-06T03:57:52;98384.65;;;19.76;100.00
51526;BME280;37611;51.794;21.590;2023-08-06T04:01:54;98380.80;;;19.84;100.00
51526;BME280;37611;51.794;21.590;2023-08-06T04:05:56;98378.39;;;19.89;100.00
51526;BME280;37611;51.794;21.590;2023-08-06T04:09:59;98375.20;;;19.97;100.00
51526;BME280;37611;51.794;21.590;2023-08-06T04:14:01;98372.93;;;20.05;100.00
51526;BME280;37611;51.794;21.590;2023-08-06T04:18:03;98369.09;;;20.16;100.00
51526;BME280;37611;51.794;21.590;2023-08-06T04:22:05;98364.25;;;20.25;100.00
51526;BME280;37611;51.794;21.590;2023-08-06T04:26:06;98361.06;;;20.34;100.00
51526;BME280;37611;51.794;21.590;2023-08-06T04:30:08;98353.27;;;20.46;100.00
51526;BME280;37611;51.794;21.590;2023-08-06T04:34:10;98346.97;;;20.60;100.00
51526;BME280;37611;51.794;21.590;2023-08-06T04:38:13;98341.39;;;20.82;100.00
51526;BME280;37611;51.794;21.590;2023-08-06T04:42:14;98331.66;;;21.02;100.00
51526;BME280;37611;51.794;21.590;2023-08-06T04:46:16;98326.28;;;21.21;100.00
51526;BME280;37611;51.794;21.590;2023-08-06T04:50:19;98320.80;;;21.43;100.00
51526;BME280;37611;51.794;21.590;2023-08-06T04:54:20;98315.19;;;21.63;100.00
51526;BME280;37611;51.794;21.590;2023-08-06T04:58:22;98312.91;;;21.73;100.00
51526;BME280;37611;51.794;21.590;2023-08-06T05:02:24;98308.11;;;21.88;100.00
51526;BME280;37611;51.794;21.590;2023-08-06T05:06:25;98304.30;;;21.98;100.00
51526;BME280;37611;51.794;21.590;2023-08-06T05:10:27;98306.65;;;22.07;100.00
51526;BME280;37611;51.794;21.590;2023-08-06T05:14:29;98301.84;;;21.99;100.00
51526;BME280;37611;51.794;21.590;2023-08-06T05:18:31;98295.54;;;22.06;100.00
51526;BME280;37611;51.794;21.590;2023-08-06T05:22:32;98288.70;;;22.21;100.00
51526;BME280;37611;51.794;21.590;2023-08-06T05:26:34;98287.11;;;22.44;100.00
51526;BME280;37611;51.794;21.590;2023-08-06T05:30:39;98286.27;;;22.60;100.00
51526;BME280;37611;51.794;21.590;2023-08-06T05:34:41;98289.58;;;22.79;100.00
51526;BME280;37611;51.794;21.590;2023-08-06T05:38:43;98281.98;;;22.95;100.00
51526;BME280;37611;51.794;21.590;2023-08-06T05:42:44;98281.06;;;23.10;100.00
51526;BME280;37611;51.794;21.590;2023-08-06T05:46:46;98285.50;;;23.22;100.00
51526;BME280;37611;51.794;21.590;2023-08-06T05:50:48;98283.39;;;23.26;100.00
51526;BME280;37611;51.794;21.590;2023-08-06T05:54:50;98282.43;;;23.24;100.00
51526;BME280;37611;51.794;21.590;2023-08-06T05:58:51;98277.63;;;23.31;100.00
51526;BME280;37611;51.794;21.590;2023-08-06T06:02:54;98268.33;;;23.45;100.00
51526;BME280;37611;51.794;21.590;2023-08-06T06:06:56;98264.09;;;23.52;100.00
51526;BME280;37611;51.794;21.590;2023-08-06T06:10:58;98264.98;;;23.63;100.00
51526;BME280;37611;51.794;21.590;2023-08-06T06:14:59;98262.09;;;23.78;100.00
51526;BME280;37611;51.794;21.590;2023-08-06T06:19:02;98260.98;;;23.90;100.00
51526;BME280;37611;51.794;21.590;2023-08-06T06:23:04;98257.30;;;23.95;100.00
51526;BME280;37611;51.794;21.590;2023-08-06T06:27:06;98255.05;;;24.06;100.00
51526;BME280;37611;51.794;21.590;2023-08-06T06:31:08;98254.13;;;24.18;100.00
51526;BME280;37611;51.794;21.590;2023-08-06T06:35:10;98249.14;;;24.27;100.00
51526;BME280;37611;51.794;21.590;2023-08-06T06:39:12;98250.77;;;24.37;100.00
51526;BME280;37611;51.794;21.590;2023-08-06T06:43:14;98250.45;;;24.54;100.00
51526;BME280;37611;51.794;21.590;2023-08-06T06:47:15;98254.95;;;24.60;99.91
51526;BME280;37611;51.794;21.590;2023-08-06T06:51:17;98256.04;;;24.62;99.77
51526;BME280;37611;51.794;21.590;2023-08-06T06:55:18;98257.37;;;24.72;99.86
51526;BME280;37611;51.794;21.590;2023-08-06T06:59:20;98257.48;;;24.81;99.29
51526;BME280;37611;51.794;21.590;2023-08-06T07:03:22;98255.95;;;24.88;99.88
51526;BME280;37611;51.794;21.590;2023-08-06T07:07:24;98251.55;;;25.08;98.97
51526;BME280;37611;51.794;21.590;2023-08-06T07:11:25;98245.05;;;25.21;98.13
51526;BME280;37611;51.794;21.590;2023-08-06T07:15:27;98240.54;;;25.29;97.22
51526;BME280;37611;51.794;21.590;2023-08-06T07:19:29;98231.63;;;25.35;97.69
51526;BME280;37611;51.794;21.590;2023-08-06T07:23:30;98235.20;;;25.51;97.85
51526;BME280;37611;51.794;21.590;2023-08-06T07:27:32;98236.61;;;25.67;95.03
51526;BME280;37611;51.794;21.590;2023-08-06T07:31:34;98231.29;;;25.73;94.66
51526;BME280;37611;51.794;21.590;2023-08-06T07:35:36;98235.48;;;25.78;94.45
51526;BME280;37611;51.794;21.590;2023-08-06T07:39:38;98233.50;;;25.77;94.78
51526;BME280;37611;51.794;21.590;2023-08-06T07:43:45;98227.63;;;25.88;94.81
51526;BME280;37611;51.794;21.590;2023-08-06T07:47:48;98225.33;;;26.00;92.56
51526;BME280;37611;51.794;21.590;2023-08-06T07:51:53;98227.00;;;26.02;91.60
51526;BME280;37611;51.794;21.590;2023-08-06T07:55:55;98220.05;;;26.06;91.89
51526;BME280;37611;51.794;21.590;2023-08-06T07:59:57;98215.65;;;26.08;90.51
51526;BME280;37611;51.794;21.590;2023-08-06T08:03:58;98215.60;;;26.11;89.80
51526;BME280;37611;51.794;21.590;2023-08-06T08:08:01;98206.61;;;26.20;90.88
51526;BME280;37611;51.794;21.590;2023-08-06T08:12:02;98204.04;;;26.38;90.68
51526;BME280;37611;51.794;21.590;2023-08-06T08:16:04;98204.86;;;26.52;89.48
51526;BME280;37611;51.794;21.590;2023-08-06T08:20:06;98208.72;;;26.58;89.64
51526;BME280;37611;51.794;21.590;2023-08-06T08:24:08;98204.39;;;26.75;88.61
51526;BME280;37611;51.794;21.590;2023-08-06T08:28:10;98202.55;;;26.92;88.16
51526;BME280;37611;51.794;21.590;2023-08-06T08:32:12;98198.11;;;27.01;87.44
51526;BME280;37611;51.794;21.590;2023-08-06T08:36:13;98200.20;;;27.02;86.31
51526;BME280;37611;51.794;21.590;2023-08-06T08:40:15;98195.08;;;27.08;85.01
51526;BME280;37611;51.794;21.590;2023-08-06T08:44:17;98190.11;;;27.29;84.40
51526;BME280;37611;51.794;21.590;2023-08-06T08:48:20;98187.81;;;27.51;84.59
51526;BME280;37611;51.794;21.590;2023-08-06T08:52:23;98184.05;;;27.66;83.39
51526;BME280;37611;51.794;21.590;2023-08-06T08:56:27;98185.00;;;27.71;82.26
51526;BME280;37611;51.794;21.590;2023-08-06T09:00:31;98179.55;;;27.73;80.60
51526;BME280;37611;51.794;21.590;2023-08-06T09:04:33;98175.44;;;27.76;80.05
51526;BME280;37611;51.794;21.590;2023-08-06T09:08:41;98164.90;;;27.87;79.15
51526;BME280;37611;51.794;21.590;2023-08-06T09:12:45;98157.74;;;28.07;79.13
51526;BME280;37611;51.794;21.590;2023-08-06T09:16:48;98154.04;;;28.20;78.38
51526;BME280;37611;51.794;21.590;2023-08-06T09:20:50;98148.15;;;28.31;77.91
51526;BME280;37611;51.794;21.590;2023-08-06T09:24:51;98140.33;;;28.38;76.83
51526;BME280;37611;51.794;21.590;2023-08-06T09:28:53;98139.42;;;28.41;75.08
51526;BME280;37611;51.794;21.590;2023-08-06T09:32:54;98134.05;;;28.44;74.23
51526;BME280;37611;51.794;21.590;2023-08-06T09:36:56;98128.45;;;28.50;74.76
51526;BME280;37611;51.794;21.590;2023-08-06T09:40:58;98113.85;;;28.64;73.97
51526;BME280;37611;51.794;21.590;2023-08-06T09:45:06;98109.88;;;28.78;73.14
51526;BME280;37611;51.794;21.590;2023-08-06T09:49:08;98105.10;;;28.89;72.47
51526;BME280;37611;51.794;21.590;2023-08-06T09:53:11;98104.19;;;28.84;72.41
51526;BME280;37611;51.794;21.590;2023-08-06T09:57:14;98101.04;;;28.88;71.73
51526;BME280;37611;51.794;21.590;2023-08-06T10:01:16;98096.69;;;28.84;70.95
51526;BME280;37611;51.794;21.590;2023-08-06T10:05:19;98086.57;;;28.88;71.49
51526;BME280;37611;51.794;21.590;2023-08-06T10:09:21;98088.23;;;28.93;71.01
51526;BME280;37611;51.794;21.590;2023-08-06T10:13:24;98082.16;;;29.01;70.38
51526;BME280;37611;51.794;21.590;2023-08-06T10:17:27;98082.16;;;29.04;71.10
51526;BME280;37611;51.794;21.590;2023-08-06T10:21:31;98080.59;;;29.09;70.60
51526;BME280;37611;51.794;21.590;2023-08-06T10:25:40;98072.70;;;29.27;68.49
51526;BME280;37611;51.794;21.590;2023-08-06T10:29:43;98066.44;;;29.24;67.46
51526;BME280;37611;51.794;21.590;2023-08-06T10:33:47;98058.95;;;29.11;68.07
51526;BME280;37611;51.794;21.590;2023-08-06T10:37:49;98055.69;;;29.11;68.21
51526;BME280;37611;51.794;21.590;2023-08-06T10:41:51;98046.52;;;28.97;68.94
51526;BME280;37611;51.794;21.590;2023-08-06T10:45:53;98046.55;;;28.93;69.92
51526;BME280;37611;51.794;21.590;2023-08-06T10:49:54;98039.63;;;29.04;70.45
51526;BME280;37611;51.794;21.590;2023-08-06T10:53:56;98031.21;;;29.07;70.56
51526;BME280;37611;51.794;21.590;2023-08-06T10:57:59;98027.16;;;29.08;70.87
51526;BME280;37611;51.794;21.590;2023-08-06T11:02:01;98020.64;;;29.22;71.09
51526;BME280;37611;51.794;21.590;2023-08-06T11:06:03;98007.50;;;29.48;70.75
51526;BME280;37611;51.794;21.590;2023-08-06T11:10:06;98005.52;;;29.68;69.74
51526;BME280;37611;51.794;21.590;2023-08-06T11:14:15;98010.13;;;29.63;68.29
51526;BME280;37611;51.794;21.590;2023-08-06T11:18:17;98007.86;;;29.52;68.10
51526;BME280;37611;51.794;21.590;2023-08-06T11:22:18;97992.22;;;29.53;67.24
51526;BME280;37611;51.794;21.590;2023-08-06T11:26:21;97983.04;;;29.57;66.84
51526;BME280;37611;51.794;21.590;2023-08-06T11:30:24;97976.94;;;29.59;67.08
51526;BME280;37611;51.794;21.590;2023-08-06T11:34:28;97976.48;;;29.63;67.78
51526;BME280;37611;51.794;21.590;2023-08-06T11:38:32;97980.96;;;29.71;67.42
51526;BME280;37611;51.794;21.590;2023-08-06T11:42:35;97974.26;;;29.73;67.58
51526;BME280;37611;51.794;21.590;2023-08-06T11:46:51;97963.91;;;29.84;66.93
51526;BME280;37611;51.794;21.590;2023-08-06T11:50:54;97969.64;;;29.78;65.86
51526;BME280;37611;51.794;21.590;2023-08-06T11:55:06;97983.39;;;29.51;66.56
51526;BME280;37611;51.794;21.590;2023-08-06T11:59:09;97983.54;;;29.22;66.66
51526;BME280;37611;51.794;21.590;2023-08-06T12:03:11;97984.08;;;29.00;67.24
51526;BME280;37611;51.794;21.590;2023-08-06T12:07:13;97970.48;;;28.76;67.78
51526;BME280;37611;51.794;21.590;2023-08-06T12:11:15;97967.00;;;28.60;68.00
51526;BME280;37611;51.794;21.590;2023-08-06T12:15:17;97965.66;;;28.45;68.21
51526;BME280;37611;51.794;21.590;2023-08-06T12:19:18;97966.77;;;28.37;68.84
51526;BME280;37611;51.794;21.590;2023-08-06T12:23:20;97958.38;;;28.37;69.63
51526;BME280;37611;51.794;21.590;2023-08-06T12:27:22;97968.33;;;28.42;69.72
51526;BME280;37611;51.794;21.590;2023-08-06T12:31:24;97968.55;;;28.47;70.05
51526;BME280;37611;51.794;21.590;2023-08-06T12:35:25;97974.42;;;28.49;70.65
51526;BME280;37611;51.794;21.590;2023-08-06T12:39:28;98008.92;;;28.16;71.76
51526;BME280;37611;51.794;21.590;2023-08-06T12:43:30;98014.25;;;27.59;73.44
51526;BME280;37611;51.794;21.590;2023-08-06T12:47:31;98018.35;;;27.21;73.99
51526;BME280;37611;51.794;21.590;2023-08-06T12:51:33;98015.34;;;26.98;74.54
51526;BME280;37611;51.794;21.590;2023-08-06T12:55:35;98024.80;;;26.77;74.62
51526;BME280;37611;51.794;21.590;2023-08-06T12:59:37;98007.81;;;26.67;74.81
51526;BME280;37611;51.794;21.590;2023-08-06T13:03:38;98005.33;;;26.75;74.55
51526;BME280;37611;51.794;21.590;2023-08-06T13:07:41;97998.44;;;26.86;75.20
51526;BME280;37611;51.794;21.590;2023-08-06T13:11:43;97988.34;;;26.90;76.51
51526;BME280;37611;51.794;21.590;2023-08-06T13:15:48;97977.79;;;26.95;77.41
51526;BME280;37611;51.794;21.590;2023-08-06T13:19:56;97985.38;;;27.09;77.89
51526;BME280;37611;51.794;21.590;2023-08-06T13:24:03;97993.11;;;27.21;77.41
51526;BME280;37611;51.794;21.590;2023-08-06T13:28:06;98003.89;;;27.21;77.15
51526;BME280;37611;51.794;21.590;2023-08-06T13:32:13;98004.95;;;27.06;77.42
51526;BME280;37611;51.794;21.590;2023-08-06T13:36:17;97993.61;;;26.92;78.36
51526;BME280;37611;51.794;21.590;2023-08-06T13:40:19;97986.14;;;26.82;78.77
51526;BME280;37611;51.794;21.590;2023-08-06T13:44:24;97987.07;;;26.91;78.92
51526;BME280;37611;51.794;21.590;2023-08-06T13:48:31;97984.00;;;26.97;78.63
51526;BME280;37611;51.794;21.590;2023-08-06T13:52:33;97987.03;;;27.00;78.58
51526;BME280;37611;51.794;21.590;2023-08-06T13:56:36;97991.07;;;26.92;78.66
51526;BME280;37611;51.794;21.590;2023-08-06T14:00:50;97998.13;;;26.84;78.67
51526;BME280;37611;51.794;21.590;2023-08-06T14:04:54;98002.39;;;26.72;79.06
51526;BME280;37611;51.794;21.590;2023-08-06T14:08:57;98013.13;;;26.72;79.01
51526;BME280;37611;51.794;21.590;2023-08-06T14:13:04;98019.21;;;26.67;79.20
51526;BME280;37611;51.794;21.590;2023-08-06T14:17:06;98021.86;;;26.74;79.82
51526;BME280;37611;51.794;21.590;2023-08-06T14:21:07;98016.88;;;26.86;79.96
51526;BME280;37611;51.794;21.590;2023-08-06T14:25:10;98021.64;;;27.07;80.05
51526;BME280;37611;51.794;21.590;2023-08-06T14:29:13;98024.14;;;27.20;79.06
51526;BME280;37611;51.794;21.590;2023-08-06T14:33:15;98028.02;;;27.26;78.45
51526;BME280;37611;51.794;21.590;2023-08-06T14:37:19;98038.76;;;27.33;78.30
51526;BME280;37611;51.794;21.590;2023-08-06T14:41:21;98030.04;;;27.33;78.70
51526;BME280;37611;51.794;21.590;2023-08-06T14:45:23;98026.82;;;27.30;77.92
51526;BME280;37611;51.794;21.590;2023-08-06T14:49:25;98036.09;;;27.20;77.40
51526;BME280;37611;51.794;21.590;2023-08-06T14:53:29;98042.55;;;27.12;76.39
51526;BME280;37611;51.794;21.590;2023-08-06T14:57:31;98044.95;;;26.99;74.57
51526;BME280;37611;51.794;21.590;2023-08-06T15:01:33;98046.80;;;26.85;74.18
51526;BME280;37611;51.794;21.590;2023-08-06T15:05:43;98057.50;;;26.71;74.78
51526;BME280;37611;51.794;21.590;2023-08-06T15:09:46;98065.12;;;26.62;75.40
51526;BME280;37611;51.794;21.590;2023-08-06T15:13:48;98061.53;;;26.57;75.38
51526;BME280;37611;51.794;21.590;2023-08-06T15:17:52;98057.59;;;26.52;74.76
51526;BME280;37611;51.794;21.590;2023-08-06T15:21:55;98058.84;;;26.46;73.13
51526;BME280;37611;51.794;21.590;2023-08-06T15:25:59;98058.88;;;26.36;72.05
51526;BME280;37611;51.794;21.590;2023-08-06T15:30:04;98059.66;;;26.28;71.20
51526;BME280;37611;51.794;21.590;2023-08-06T15:34:06;98058.23;;;26.13;70.38
51526;BME280;37611;51.794;21.590;2023-08-06T15:38:09;98060.21;;;26.01;70.65
51526;BME280;37611;51.794;21.590;2023-08-06T15:42:11;98060.21;;;25.93;71.28
51526;BME280;37611;51.794;21.590;2023-08-06T15:46:13;98065.30;;;25.86;71.81
51526;BME280;37611;51.794;21.590;2023-08-06T15:50:31;98076.88;;;25.80;72.32
51526;BME280;37611;51.794;21.590;2023-08-06T15:54:33;98083.60;;;25.73;72.80
51526;BME280;37611;51.794;21.590;2023-08-06T15:58:34;98093.80;;;25.68;73.31
51526;BME280;37611;51.794;21.590;2023-08-06T16:02:39;98080.76;;;25.61;73.65
51526;BME280;37611;51.794;21.590;2023-08-06T16:06:43;98067.90;;;25.58;73.76
51526;BME280;37611;51.794;21.590;2023-08-06T16:10:52;98070.45;;;25.54;74.16
51526;BME280;37611;51.794;21.590;2023-08-06T16:14:57;98080.31;;;25.50;74.74
51526;BME280;37611;51.794;21.590;2023-08-06T16:19:02;98090.27;;;25.43;75.24
51526;BME280;37611;51.794;21.590;2023-08-06T16:23:10;98084.42;;;25.39;76.05
51526;BME280;37611;51.794;21.590;2023-08-06T16:27:14;98066.98;;;25.35;76.37
51526;BME280;37611;51.794;21.590;2023-08-06T16:31:20;98075.29;;;25.30;76.76
51526;BME280;37611;51.794;21.590;2023-08-06T16:35:28;98075.23;;;25.25;77.24
51526;BME280;37611;51.794;21.590;2023-08-06T16:39:32;98084.10;;;25.21;77.61
51526;BME280;37611;51.794;21.590;2023-08-06T16:43:37;98082.36;;;25.15;78.05
51526;BME280;37611;51.794;21.590;2023-08-06T16:47:41;98077.77;;;25.10;78.41
51526;BME280;37611;51.794;21.590;2023-08-06T16:51:42;98082.83;;;25.08;78.52
51526;BME280;37611;51.794;21.590;2023-08-06T16:55:44;98087.42;;;25.03;78.69
51526;BME280;37611;51.794;21.590;2023-08-06T16:59:48;98075.70;;;24.97;79.15
51526;BME280;37611;51.794;21.590;2023-08-06T17:03:50;98071.09;;;24.89;79.48
51526;BME280;37611;51.794;21.590;2023-08-06T17:07:54;98075.92;;;24.79;79.89
51526;BME280;37611;51.794;21.590;2023-08-06T17:11:59;98076.85;;;24.71;80.24
51526;BME280;37611;51.794;21.590;2023-08-06T17:16:32;98078.13;;;24.64;80.35
51526;BME280;37611;51.794;21.590;2023-08-06T17:20:46;98082.23;;;24.55;80.60
51526;BME280;37611;51.794;21.590;2023-08-06T17:24:52;98086.71;;;24.45;81.11
51526;BME280;37611;51.794;21.590;2023-08-06T17:29:09;98102.33;;;24.37;81.48
51526;BME280;37611;51.794;21.590;2023-08-06T17:33:22;98109.23;;;24.29;81.73
51526;BME280;37611;51.794;21.590;2023-08-06T17:37:36;98137.96;;;24.18;82.69
51526;BME280;37611;51.794;21.590;2023-08-06T17:41:52;98153.71;;;23.84;85.53
51526;BME280;37611;51.794;21.590;2023-08-06T17:46:12;98166.39;;;23.36;88.18
51526;BME280;37611;51.794;21.590;2023-08-06T17:50:14;98171.10;;;22.99;90.85
51526;BME280;37611;51.794;21.590;2023-08-06T17:54:18;98177.77;;;22.73;91.92
51526;BME280;37611;51.794;21.590;2023-08-06T17:58:21;98173.07;;;22.47;93.25
51526;BME280;37611;51.794;21.590;2023-08-06T18:02:24;98178.30;;;22.20;94.83
51526;BME280;37611;51.794;21.590;2023-08-06T18:06:25;98181.80;;;21.93;95.13
51526;BME280;37611;51.794;21.590;2023-08-06T18:10:27;98182.02;;;21.66;95.62
51526;BME280;37611;51.794;21.590;2023-08-06T18:14:29;98189.02;;;21.40;95.75
51526;BME280;37611;51.794;21.590;2023-08-06T18:18:30;98187.46;;;21.11;96.09
51526;BME280;37611;51.794;21.590;2023-08-06T18:22:33;98192.80;;;20.80;96.37
51526;BME280;37611;51.794;21.590;2023-08-06T18:26:35;98207.66;;;20.50;96.62
51526;BME280;37611;51.794;21.590;2023-08-06T18:30:36;98208.57;;;20.22;96.90
51526;BME280;37611;51.794;21.590;2023-08-06T18:34:38;98218.67;;;19.99;97.06
51526;BME280;37611;51.794;21.590;2023-08-06T18:38:40;98232.95;;;19.75;97.61
51526;BME280;37611;51.794;21.590;2023-08-06T18:42:43;98233.81;;;19.54;98.51
51526;BME280;37611;51.794;21.590;2023-08-06T18:46:45;98240.40;;;19.39;98.67
51526;BME280;37611;51.794;21.590;2023-08-06T18:50:47;98239.54;;;19.22;99.83
51526;BME280;37611;51.794;21.590;2023-08-06T18:54:49;98255.07;;;19.01;100.00
51526;BME280;37611;51.794;21.590;2023-08-06T18:58:51;98253.31;;;18.87;100.00
51526;BME280;37611;51.794;21.590;2023-08-06T19:02:53;98249.69;;;18.77;100.00
51526;BME280;37611;51.794;21.590;2023-08-06T19:06:55;98246.08;;;18.73;100.00
51526;BME280;37611;51.794;21.590;2023-08-06T19:10:57;98246.14;;;18.64;100.00
51526;BME280;37611;51.794;21.590;2023-08-06T19:14:59;98234.48;;;18.53;100.00
51526;BME280;37611;51.794;21.590;2023-08-06T19:19:01;98239.58;;;18.49;100.00
51526;BME280;37611;51.794;21.590;2023-08-06T19:23:03;98255.40;;;18.40;100.00
51526;BME280;37611;51.794;21.590;2023-08-06T19:27:06;98263.94;;;18.26;100.00
51526;BME280;37611;51.794;21.590;2023-08-06T19:31:08;98258.52;;;18.11;100.00
51526;BME280;37611;51.794;21.590;2023-08-06T19:35:10;98251.11;;;17.99;100.00
51526;BME280;37611;51.794;21.590;2023-08-06T19:39:12;98244.36;;;17.85;100.00
51526;BME280;37611;51.794;21.590;2023-08-06T19:43:14;98236.88;;;17.76;100.00
51526;BME280;37611;51.794;21.590;2023-08-06T19:47:20;98233.69;;;17.64;100.00
51526;BME280;37611;51.794;21.590;2023-08-06T19:51:24;98230.16;;;17.53;100.00
51526;BME280;37611;51.794;21.590;2023-08-06T19:55:27;98226.14;;;17.47;100.00
51526;BME280;37611;51.794;21.590;2023-08-06T19:59:29;98224.52;;;17.48;100.00
51526;BME280;37611;51.794;21.590;2023-08-06T20:03:31;98219.77;;;17.47;100.00
51526;BME280;37611;51.794;21.590;2023-08-06T20:07:33;98216.00;;;17.40;100.00
51526;BME280;37611;51.794;21.590;2023-08-06T20:11:35;98202.19;;;17.37;100.00
51526;BME280;37611;51.794;21.590;2023-08-06T20:15:37;98219.83;;;17.41;100.00
51526;BME280;37611;51.794;21.590;2023-08-06T20:19:38;98224.52;;;17.36;100.00
51526;BME280;37611;51.794;21.590;2023-08-06T20:23:41;98227.55;;;17.27;100.00
51526;BME280;37611;51.794;21.590;2023-08-06T20:27:43;98230.23;;;17.29;100.00
51526;BME280;37611;51.794;21.590;2023-08-06T20:31:44;98232.05;;;17.26;100.00
51526;BME280;37611;51.794;21.590;2023-08-06T20:35:46;98227.01;;;17.21;100.00
51526;BME280;37611;51.794;21.590;2023-08-06T20:39:48;98226.52;;;17.23;100.00
51526;BME280;37611;51.794;21.590;2023-08-06T20:43:50;98239.08;;;17.22;100.00
51526;BME280;37611;51.794;21.590;2023-08-06T20:47:51;98246.52;;;17.23;100.00
51526;BME280;37611;51.794;21.590;2023-08-06T20:51:53;98250.93;;;17.23;100.00
51526;BME280;37611;51.794;21.590;2023-08-06T20:55:59;98256.59;;;17.20;100.00
51526;BME280;37611;51.794;21.590;2023-08-06T21:00:01;98253.46;;;17.22;100.00
51526;BME280;37611;51.794;21.590;2023-08-06T21:04:04;98255.98;;;17.14;100.00
51526;BME280;37611;51.794;21.590;2023-08-06T21:08:09;98256.56;;;17.11;100.00
51526;BME280;37611;51.794;21.590;2023-08-06T21:12:11;98260.11;;;17.14;100.00